sensor_id;sensor_type;location;lat;lon;timestamp;P1;durP1;ratioP1;P2;durP2;ratioP2
62673;SDS011;62269;47.594;17.638;2024-02-21T00:00:31;6.50;;;4.15;;
62673;SDS011;62269;47.594;17.638;2024-02-21T00:01:28;5.53;;;4.25;;
62673;SDS011;62269;47.594;17.638;2024-02-21T00:02:26;7.53;;;4.25;;
62673;SDS011;62269;47.594;17.638;2024-02-21T00:03:23;6.40;;;3.95;;
62673;SDS011;62269;47.594;17.638;2024-02-21T00:04:20;6.35;;;4.20;;
62673;SDS011;62269;47.594;17.638;2024-02-21T00:05:18;6.30;;;4.03;;
62673;SDS011;62269;47.594;17.638;2024-02-21T00:06:15;4.90;;;3.70;;
62673;SDS011;62269;47.594;17.638;2024-02-21T00:07:12;7.18;;;4.12;;
62673;SDS011;62269;47.594;17.638;2024-02-21T00:08:09;8.45;;;4.20;;
62673;SDS011;62269;47.594;17.638;2024-02-21T00:09:06;7.05;;;4.10;;
62673;SDS011;62269;47.594;17.638;2024-02-21T00:10:06;6.15;;;4.22;;
62673;SDS011;62269;47.594;17.638;2024-02-21T00:11:04;7.70;;;4.65;;
62673;SDS011;62269;47.594;17.638;2024-02-21T00:12:02;6.57;;;5.00;;
62673;SDS011;62269;47.594;17.638;2024-02-21T00:12:59;6.03;;;4.05;;
62673;SDS011;62269;47.594;17.638;2024-02-21T00:13:57;8.35;;;3.90;;
62673;SDS011;62269;47.594;17.638;2024-02-21T00:14:54;4.87;;;4.12;;
62673;SDS011;62269;47.594;17.638;2024-02-21T00:15:51;5.87;;;3.80;;
62673;SDS011;62269;47.594;17.638;2024-02-21T00:16:48;6.68;;;4.00;;
62673;SDS011;62269;47.594;17.638;2024-02-21T00:17:45;5.95;;;3.90;;
62673;SDS011;62269;47.594;17.638;2024-02-21T00:18:43;6.72;;;4.25;;
62673;SDS011;62269;47.594;17.638;2024-02-21T00:19:41;5.25;;;4.03;;
62673;SDS011;62269;47.594;17.638;2024-02-21T00:20:38;6.00;;;4.20;;
62673;SDS011;62269;47.594;17.638;2024-02-21T00:21:35;6.18;;;4.62;;
62673;SDS011;62269;47.594;17.638;2024-02-21T00:22:32;5.80;;;3.85;;
62673;SDS011;62269;47.594;17.638;2024-02-21T00:23:30;5.40;;;3.80;;
62673;SDS011;62269;47.594;17.638;2024-02-21T00:24:27;6.78;;;4.22;;
62673;SDS011;62269;47.594;17.638;2024-02-21T00:25:24;6.43;;;4.15;;
62673;SDS011;62269;47.594;17.638;2024-02-21T00:26:21;7.07;;;4.30;;
62673;SDS011;62269;47.594;17.638;2024-02-21T00:27:18;6.40;;;4.28;;
62673;SDS011;62269;47.594;17.638;2024-02-21T00:28:15;4.72;;;4.00;;
62673;SDS011;62269;47.594;17.638;2024-02-21T00:29:12;6.50;;;3.90;;
62673;SDS011;62269;47.594;17.638;2024-02-21T00:30:10;6.50;;;4.12;;
62673;SDS011;62269;47.594;17.638;2024-02-21T00:31:07;4.87;;;3.83;;
62673;SDS011;62269;47.594;17.638;2024-02-21T00:32:05;4.50;;;3.85;;
62673;SDS011;62269;47.594;17.638;2024-02-21T00:33:02;6.40;;;4.05;;
62673;SDS011;62269;47.594;17.638;2024-02-21T00:33:59;6.65;;;4.15;;
62673;SDS011;62269;47.594;17.638;2024-02-21T00:34:57;7.50;;;3.90;;
62673;SDS011;62269;47.594;17.638;2024-02-21T00:35:54;6.07;;;3.72;;
62673;SDS011;62269;47.594;17.638;2024-02-21T00:36:51;6.47;;;4.05;;
62673;SDS011;62269;47.594;17.638;2024-02-21T00:37:48;8.20;;;4.10;;
62673;SDS011;62269;47.594;17.638;2024-02-21T00:38:45;5.45;;;3.85;;
62673;SDS011;62269;47.594;17.638;2024-02-21T00:39:43;9.88;;;4.72;;
62673;SDS011;62269;47.594;17.638;2024-02-21T00:40:40;5.93;;;4.12;;
62673;SDS011;62269;47.594;17.638;2024-02-21T00:41:37;5.65;;;4.53;;
62673;SDS011;62269;47.594;17.638;2024-02-21T00:42:34;7.72;;;4.00;;
62673;SDS011;62269;47.594;17.638;2024-02-21T00:43:31;6.12;;;4.05;;
62673;SDS011;62269;47.594;17.638;2024-02-21T00:44:28;7.68;;;4.45;;
62673;SDS011;62269;47.594;17.638;2024-02-21T00:45:25;8.15;;;4.43;;
62673;SDS011;62269;47.594;17.638;2024-02-21T00:46:23;7.28;;;4.43;;
62673;SDS011;62269;47.594;17.638;2024-02-21T00:47:20;5.93;;;3.75;;
62673;SDS011;62269;47.594;17.638;2024-02-21T00:48:17;7.60;;;4.68;;
62673;SDS011;62269;47.594;17.638;2024-02-21T00:49:15;6.28;;;4.15;;
62673;SDS011;62269;47.594;17.638;2024-02-21T00:50:12;6.82;;;4.10;;
62673;SDS011;62269;47.594;17.638;2024-02-21T00:51:10;8.15;;;4.75;;
62673;SDS011;62269;47.594;17.638;2024-02-21T00:52:07;6.90;;;4.12;;
62673;SDS011;62269;47.594;17.638;2024-02-21T00:53:04;5.20;;;4.18;;
62673;SDS011;62269;47.594;17.638;2024-02-21T00:54:01;7.82;;;4.72;;
62673;SDS011;62269;47.594;17.638;2024-02-21T00:54:58;7.18;;;4.10;;
62673;SDS011;62269;47.594;17.638;2024-02-21T00:55:56;6.97;;;4.50;;
62673;SDS011;62269;47.594;17.638;2024-02-21T00:56:53;6.78;;;4.28;;
62673;SDS011;62269;47.594;17.638;2024-02-21T00:57:50;7.12;;;4.20;;
62673;SDS011;62269;47.594;17.638;2024-02-21T00:58:47;7.05;;;4.20;;
62673;SDS011;62269;47.594;17.638;2024-02-21T00:59:45;8.23;;;4.43;;
62673;SDS011;62269;47.594;17.638;2024-02-21T01:00:42;8.20;;;4.97;;
62673;SDS011;62269;47.594;17.638;2024-02-21T01:01:40;5.90;;;4.10;;
62673;SDS011;62269;47.594;17.638;2024-02-21T01:02:40;6.53;;;4.40;;
62673;SDS011;62269;47.594;17.638;2024-02-21T01:03:39;6.68;;;4.60;;
62673;SDS011;62269;47.594;17.638;2024-02-21T01:04:36;8.63;;;4.25;;
62673;SDS011;62269;47.594;17.638;2024-02-21T01:05:33;8.65;;;4.37;;
62673;SDS011;62269;47.594;17.638;2024-02-21T01:06:30;8.23;;;4.40;;
62673;SDS011;62269;47.594;17.638;2024-02-21T01:07:28;7.78;;;4.15;;
62673;SDS011;62269;47.594;17.638;2024-02-21T01:08:25;11.30;;;4.93;;
62673;SDS011;62269;47.594;17.638;2024-02-21T01:09:22;8.73;;;5.12;;
62673;SDS011;62269;47.594;17.638;2024-02-21T01:10:19;7.43;;;4.20;;
62673;SDS011;62269;47.594;17.638;2024-02-21T01:11:16;8.48;;;4.20;;
62673;SDS011;62269;47.594;17.638;2024-02-21T01:12:13;7.87;;;4.78;;
62673;SDS011;62269;47.594;17.638;2024-02-21T01:13:10;7.57;;;4.45;;
62673;SDS011;62269;47.594;17.638;2024-02-21T01:14:08;6.15;;;4.28;;
62673;SDS011;62269;47.594;17.638;2024-02-21T01:15:05;6.72;;;4.28;;
62673;SDS011;62269;47.594;17.638;2024-02-21T01:16:02;5.72;;;4.15;;
62673;SDS011;62269;47.594;17.638;2024-02-21T01:16:59;6.87;;;4.80;;
62673;SDS011;62269;47.594;17.638;2024-02-21T01:17:56;7.87;;;4.97;;
62673;SDS011;62269;47.594;17.638;2024-02-21T01:18:54;7.25;;;4.60;;
62673;SDS011;62269;47.594;17.638;2024-02-21T01:19:51;6.35;;;4.30;;
62673;SDS011;62269;47.594;17.638;2024-02-21T01:20:48;7.90;;;4.40;;
62673;SDS011;62269;47.594;17.638;2024-02-21T01:21:45;6.95;;;4.55;;
62673;SDS011;62269;47.594;17.638;2024-02-21T01:22:42;9.48;;;4.32;;
62673;SDS011;62269;47.594;17.638;2024-02-21T01:23:39;8.63;;;4.57;;
62673;SDS011;62269;47.594;17.638;2024-02-21T01:24:37;8.02;;;4.82;;
62673;SDS011;62269;47.594;17.638;2024-02-21T01:25:35;7.87;;;4.70;;
62673;SDS011;62269;47.594;17.638;2024-02-21T01:26:32;7.85;;;4.60;;
62673;SDS011;62269;47.594;17.638;2024-02-21T01:27:29;9.50;;;5.05;;
62673;SDS011;62269;47.594;17.638;2024-02-21T01:28:26;7.68;;;4.30;;
62673;SDS011;62269;47.594;17.638;2024-02-21T01:29:24;6.22;;;4.53;;
62673;SDS011;62269;47.594;17.638;2024-02-21T01:30:21;8.23;;;4.30;;
62673;SDS011;62269;47.594;17.638;2024-02-21T01:31:18;8.95;;;4.60;;
62673;SDS011;62269;47.594;17.638;2024-02-21T01:32:16;6.07;;;4.07;;
62673;SDS011;62269;47.594;17.638;2024-02-21T01:33:13;8.30;;;4.85;;
62673;SDS011;62269;47.594;17.638;2024-02-21T01:34:10;7.00;;;4.70;;
62673;SDS011;62269;47.594;17.638;2024-02-21T01:35:07;7.78;;;4.40;;
62673;SDS011;62269;47.594;17.638;2024-02-21T01:36:05;7.82;;;4.65;;
62673;SDS011;62269;47.594;17.638;2024-02-21T01:37:03;6.45;;;4.30;;
62673;SDS011;62269;47.594;17.638;2024-02-21T01:38:03;11.85;;;5.10;;
62673;SDS011;62269;47.594;17.638;2024-02-21T01:39:01;7.22;;;4.43;;
62673;SDS011;62269;47.594;17.638;2024-02-21T01:39:58;8.43;;;4.40;;
62673;SDS011;62269;47.594;17.638;2024-02-21T01:40:56;7.32;;;4.82;;
62673;SDS011;62269;47.594;17.638;2024-02-21T01:41:54;6.45;;;4.50;;
62673;SDS011;62269;47.594;17.638;2024-02-21T01:42:51;12.37;;;5.43;;
62673;SDS011;62269;47.594;17.638;2024-02-21T01:43:51;8.13;;;4.85;;
62673;SDS011;62269;47.594;17.638;2024-02-21T01:44:48;8.10;;;4.40;;
62673;SDS011;62269;47.594;17.638;2024-02-21T01:45:47;6.37;;;4.53;;
62673;SDS011;62269;47.594;17.638;2024-02-21T01:46:46;8.55;;;3.97;;
62673;SDS011;62269;47.594;17.638;2024-02-21T01:47:44;8.45;;;4.35;;
62673;SDS011;62269;47.594;17.638;2024-02-21T01:48:41;6.35;;;4.43;;
62673;SDS011;62269;47.594;17.638;2024-02-21T01:49:38;6.70;;;4.60;;
62673;SDS011;62269;47.594;17.638;2024-02-21T01:50:36;6.43;;;4.40;;
62673;SDS011;62269;47.594;17.638;2024-02-21T01:51:33;7.70;;;4.75;;
62673;SDS011;62269;47.594;17.638;2024-02-21T01:52:30;7.53;;;4.30;;
62673;SDS011;62269;47.594;17.638;2024-02-21T01:53:32;7.93;;;4.18;;
62673;SDS011;62269;47.594;17.638;2024-02-21T01:54:33;8.95;;;4.62;;
62673;SDS011;62269;47.594;17.638;2024-02-21T01:55:30;6.78;;;4.37;;
62673;SDS011;62269;47.594;17.638;2024-02-21T01:56:28;7.20;;;4.37;;
62673;SDS011;62269;47.594;17.638;2024-02-21T01:57:26;7.82;;;4.47;;
62673;SDS011;62269;47.594;17.638;2024-02-21T01:58:25;4.57;;;3.40;;
62673;SDS011;62269;47.594;17.638;2024-02-21T01:59:23;7.25;;;4.50;;
62673;SDS011;62269;47.594;17.638;2024-02-21T02:00:21;7.53;;;4.45;;
62673;SDS011;62269;47.594;17.638;2024-02-21T02:01:19;7.20;;;4.80;;
62673;SDS011;62269;47.594;17.638;2024-02-21T02:02:18;9.00;;;5.10;;
62673;SDS011;62269;47.594;17.638;2024-02-21T02:03:16;6.75;;;4.82;;
62673;SDS011;62269;47.594;17.638;2024-02-21T02:04:14;9.88;;;4.90;;
62673;SDS011;62269;47.594;17.638;2024-02-21T02:05:12;7.80;;;4.87;;
62673;SDS011;62269;47.594;17.638;2024-02-21T02:06:10;9.35;;;5.70;;
62673;SDS011;62269;47.594;17.638;2024-02-21T02:07:08;8.77;;;5.25;;
62673;SDS011;62269;47.594;17.638;2024-02-21T02:08:07;6.95;;;5.10;;
62673;SDS011;62269;47.594;17.638;2024-02-21T02:09:04;8.27;;;5.03;;
62673;SDS011;62269;47.594;17.638;2024-02-21T02:10:02;7.43;;;5.03;;
62673;SDS011;62269;47.594;17.638;2024-02-21T02:10:59;8.23;;;5.12;;
62673;SDS011;62269;47.594;17.638;2024-02-21T02:11:57;10.30;;;5.72;;
62673;SDS011;62269;47.594;17.638;2024-02-21T02:12:55;8.13;;;5.05;;
62673;SDS011;62269;47.594;17.638;2024-02-21T02:13:53;8.20;;;5.22;;
62673;SDS011;62269;47.594;17.638;2024-02-21T02:15:00;9.05;;;5.10;;
62673;SDS011;62269;47.594;17.638;2024-02-21T02:16:01;6.57;;;4.78;;
62673;SDS011;62269;47.594;17.638;2024-02-21T02:16:58;12.45;;;5.18;;
62673;SDS011;62269;47.594;17.638;2024-02-21T02:17:56;9.63;;;5.40;;
62673;SDS011;62269;47.594;17.638;2024-02-21T02:18:54;9.43;;;5.55;;
62673;SDS011;62269;47.594;17.638;2024-02-21T02:19:52;10.02;;;5.18;;
62673;SDS011;62269;47.594;17.638;2024-02-21T02:20:50;8.63;;;5.03;;
62673;SDS011;62269;47.594;17.638;2024-02-21T02:21:53;9.07;;;5.25;;
62673;SDS011;62269;47.594;17.638;2024-02-21T02:22:53;10.30;;;5.12;;
62673;SDS011;62269;47.594;17.638;2024-02-21T02:23:51;8.80;;;5.40;;
62673;SDS011;62269;47.594;17.638;2024-02-21T02:24:49;11.50;;;5.68;;
62673;SDS011;62269;47.594;17.638;2024-02-21T02:25:46;8.05;;;4.93;;
62673;SDS011;62269;47.594;17.638;2024-02-21T02:26:49;10.20;;;5.18;;
62673;SDS011;62269;47.594;17.638;2024-02-21T02:27:47;10.93;;;6.10;;
62673;SDS011;62269;47.594;17.638;2024-02-21T02:28:45;11.60;;;5.57;;
62673;SDS011;62269;47.594;17.638;2024-02-21T02:29:43;10.20;;;5.28;;
62673;SDS011;62269;47.594;17.638;2024-02-21T02:30:40;8.05;;;4.90;;
62673;SDS011;62269;47.594;17.638;2024-02-21T02:31:38;13.98;;;5.50;;
62673;SDS011;62269;47.594;17.638;2024-02-21T02:32:36;8.70;;;6.00;;
62673;SDS011;62269;47.594;17.638;2024-02-21T02:33:33;10.88;;;5.70;;
62673;SDS011;62269;47.594;17.638;2024-02-21T02:34:31;9.30;;;5.00;;
62673;SDS011;62269;47.594;17.638;2024-02-21T02:35:29;8.23;;;5.30;;
62673;SDS011;62269;47.594;17.638;2024-02-21T02:36:26;9.70;;;5.15;;
62673;SDS011;62269;47.594;17.638;2024-02-21T02:37:24;8.98;;;5.37;;
62673;SDS011;62269;47.594;17.638;2024-02-21T02:38:22;10.75;;;4.80;;
62673;SDS011;62269;47.594;17.638;2024-02-21T02:39:20;7.65;;;5.12;;
62673;SDS011;62269;47.594;17.638;2024-02-21T02:40:18;11.68;;;5.53;;
62673;SDS011;62269;47.594;17.638;2024-02-21T02:41:15;9.75;;;5.32;;
62673;SDS011;62269;47.594;17.638;2024-02-21T02:42:13;10.52;;;5.43;;
62673;SDS011;62269;47.594;17.638;2024-02-21T02:43:10;8.98;;;5.37;;
62673;SDS011;62269;47.594;17.638;2024-02-21T02:44:08;7.90;;;5.00;;
62673;SDS011;62269;47.594;17.638;2024-02-21T02:45:06;10.05;;;5.10;;
62673;SDS011;62269;47.594;17.638;2024-02-21T02:46:04;9.10;;;5.07;;
62673;SDS011;62269;47.594;17.638;2024-02-21T02:47:01;9.52;;;5.20;;
62673;SDS011;62269;47.594;17.638;2024-02-21T02:47:59;8.35;;;5.30;;
62673;SDS011;62269;47.594;17.638;2024-02-21T02:48:58;9.15;;;4.90;;
62673;SDS011;62269;47.594;17.638;2024-02-21T02:49:56;11.95;;;5.20;;
62673;SDS011;62269;47.594;17.638;2024-02-21T02:50:54;9.48;;;4.80;;
62673;SDS011;62269;47.594;17.638;2024-02-21T02:51:51;8.10;;;5.10;;
62673;SDS011;62269;47.594;17.638;2024-02-21T02:52:49;9.25;;;5.18;;
62673;SDS011;62269;47.594;17.638;2024-02-21T02:53:46;7.72;;;4.93;;
62673;SDS011;62269;47.594;17.638;2024-02-21T02:54:44;10.07;;;5.37;;
62673;SDS011;62269;47.594;17.638;2024-02-21T02:55:42;9.75;;;5.00;;
62673;SDS011;62269;47.594;17.638;2024-02-21T02:56:40;13.13;;;5.95;;
62673;SDS011;62269;47.594;17.638;2024-02-21T02:57:37;7.80;;;4.95;;
62673;SDS011;62269;47.594;17.638;2024-02-21T02:58:35;10.00;;;7.05;;
62673;SDS011;62269;47.594;17.638;2024-02-21T02:59:32;7.00;;;4.85;;
62673;SDS011;62269;47.594;17.638;2024-02-21T03:00:30;12.65;;;5.70;;
62673;SDS011;62269;47.594;17.638;2024-02-21T03:01:27;7.57;;;5.18;;
62673;SDS011;62269;47.594;17.638;2024-02-21T03:02:25;7.70;;;5.55;;
62673;SDS011;62269;47.594;17.638;2024-02-21T03:03:22;9.70;;;5.57;;
62673;SDS011;62269;47.594;17.638;2024-02-21T03:04:20;12.90;;;6.07;;
62673;SDS011;62269;47.594;17.638;2024-02-21T03:05:19;11.15;;;5.60;;
62673;SDS011;62269;47.594;17.638;2024-02-21T03:06:17;8.93;;;4.90;;
62673;SDS011;62269;47.594;17.638;2024-02-21T03:07:15;8.50;;;5.50;;
62673;SDS011;62269;47.594;17.638;2024-02-21T03:08:13;8.25;;;4.87;;
62673;SDS011;62269;47.594;17.638;2024-02-21T03:09:11;9.82;;;5.47;;
62673;SDS011;62269;47.594;17.638;2024-02-21T03:10:09;9.20;;;5.37;;
62673;SDS011;62269;47.594;17.638;2024-02-21T03:11:08;11.32;;;5.45;;
62673;SDS011;62269;47.594;17.638;2024-02-21T03:12:05;10.25;;;5.37;;
62673;SDS011;62269;47.594;17.638;2024-02-21T03:13:03;11.32;;;5.93;;
62673;SDS011;62269;47.594;17.638;2024-02-21T03:14:00;7.43;;;5.85;;
62673;SDS011;62269;47.594;17.638;2024-02-21T03:14:57;9.65;;;4.97;;
62673;SDS011;62269;47.594;17.638;2024-02-21T03:15:55;10.40;;;5.35;;
62673;SDS011;62269;47.594;17.638;2024-02-21T03:16:53;10.05;;;5.30;;
62673;SDS011;62269;47.594;17.638;2024-02-21T03:17:51;10.20;;;5.12;;
62673;SDS011;62269;47.594;17.638;2024-02-21T03:18:48;7.70;;;5.28;;
62673;SDS011;62269;47.594;17.638;2024-02-21T03:19:45;10.35;;;5.90;;
62673;SDS011;62269;47.594;17.638;2024-02-21T03:20:43;10.95;;;5.53;;
62673;SDS011;62269;47.594;17.638;2024-02-21T03:21:41;9.25;;;5.40;;
62673;SDS011;62269;47.594;17.638;2024-02-21T03:22:38;9.13;;;5.03;;
62673;SDS011;62269;47.594;17.638;2024-02-21T03:23:36;10.27;;;5.40;;
62673;SDS011;62269;47.594;17.638;2024-02-21T03:24:34;9.95;;;5.12;;
62673;SDS011;62269;47.594;17.638;2024-02-21T03:25:31;8.70;;;5.00;;
62673;SDS011;62269;47.594;17.638;2024-02-21T03:26:29;8.25;;;5.53;;
62673;SDS011;62269;47.594;17.638;2024-02-21T03:27:26;8.88;;;5.05;;
62673;SDS011;62269;47.594;17.638;2024-02-21T03:28:24;9.23;;;4.87;;
62673;SDS011;62269;47.594;17.638;2024-02-21T03:29:21;7.57;;;4.85;;
62673;SDS011;62269;47.594;17.638;2024-02-21T03:30:19;8.32;;;4.82;;
62673;SDS011;62269;47.594;17.638;2024-02-21T03:31:17;9.45;;;5.10;;
62673;SDS011;62269;47.594;17.638;2024-02-21T03:32:15;9.07;;;5.00;;
62673;SDS011;62269;47.594;17.638;2024-02-21T03:33:12;10.15;;;5.10;;
62673;SDS011;62269;47.594;17.638;2024-02-21T03:34:10;6.57;;;4.68;;
62673;SDS011;62269;47.594;17.638;2024-02-21T03:35:08;6.07;;;4.78;;
62673;SDS011;62269;47.594;17.638;2024-02-21T03:36:06;7.95;;;5.20;;
62673;SDS011;62269;47.594;17.638;2024-02-21T03:37:10;8.73;;;5.30;;
62673;SDS011;62269;47.594;17.638;2024-02-21T03:38:11;12.85;;;5.25;;
62673;SDS011;62269;47.594;17.638;2024-02-21T03:39:08;10.65;;;5.35;;
62673;SDS011;62269;47.594;17.638;2024-02-21T03:40:07;7.97;;;4.70;;
62673;SDS011;62269;47.594;17.638;2024-02-21T03:41:08;8.50;;;5.28;;
62673;SDS011;62269;47.594;17.638;2024-02-21T03:42:06;9.30;;;5.57;;
62673;SDS011;62269;47.594;17.638;2024-02-21T03:43:04;9.05;;;5.35;;
62673;SDS011;62269;47.594;17.638;2024-02-21T03:44:01;7.57;;;5.10;;
62673;SDS011;62269;47.594;17.638;2024-02-21T03:44:59;7.93;;;5.28;;
62673;SDS011;62269;47.594;17.638;2024-02-21T03:45:56;14.30;;;5.50;;
62673;SDS011;62269;47.594;17.638;2024-02-21T03:46:54;12.60;;;5.00;;
62673;SDS011;62269;47.594;17.638;2024-02-21T03:47:52;16.95;;;5.90;;
62673;SDS011;62269;47.594;17.638;2024-02-21T03:48:49;6.72;;;4.50;;
62673;SDS011;62269;47.594;17.638;2024-02-21T03:49:47;9.10;;;5.07;;
62673;SDS011;62269;47.594;17.638;2024-02-21T03:50:45;10.98;;;5.22;;
62673;SDS011;62269;47.594;17.638;2024-02-21T03:51:42;8.38;;;4.90;;
62673;SDS011;62269;47.594;17.638;2024-02-21T03:52:40;8.10;;;4.85;;
62673;SDS011;62269;47.594;17.638;2024-02-21T03:53:38;9.70;;;5.20;;
62673;SDS011;62269;47.594;17.638;2024-02-21T03:54:35;10.95;;;5.32;;
62673;SDS011;62269;47.594;17.638;2024-02-21T03:55:33;7.95;;;5.22;;
62673;SDS011;62269;47.594;17.638;2024-02-21T03:56:31;9.52;;;4.78;;
62673;SDS011;62269;47.594;17.638;2024-02-21T03:57:28;8.05;;;4.80;;
62673;SDS011;62269;47.594;17.638;2024-02-21T03:58:26;9.05;;;5.40;;
62673;SDS011;62269;47.594;17.638;2024-02-21T03:59:24;9.40;;;5.05;;
62673;SDS011;62269;47.594;17.638;2024-02-21T04:00:21;8.77;;;4.70;;
62673;SDS011;62269;47.594;17.638;2024-02-21T04:01:20;7.60;;;4.82;;
62673;SDS011;62269;47.594;17.638;2024-02-21T04:02:17;8.68;;;5.10;;
62673;SDS011;62269;47.594;17.638;2024-02-21T04:03:15;7.93;;;5.20;;
62673;SDS011;62269;47.594;17.638;2024-02-21T04:04:14;8.35;;;5.15;;
62673;SDS011;62269;47.594;17.638;2024-02-21T04:05:11;8.98;;;4.78;;
62673;SDS011;62269;47.594;17.638;2024-02-21T04:06:13;9.50;;;5.12;;
62673;SDS011;62269;47.594;17.638;2024-02-21T04:07:12;10.13;;;5.15;;
62673;SDS011;62269;47.594;17.638;2024-02-21T04:08:10;8.07;;;5.15;;
62673;SDS011;62269;47.594;17.638;2024-02-21T04:09:07;6.62;;;4.75;;
62673;SDS011;62269;47.594;17.638;2024-02-21T04:10:05;6.37;;;4.68;;
62673;SDS011;62269;47.594;17.638;2024-02-21T04:11:03;10.23;;;5.37;;
62673;SDS011;62269;47.594;17.638;2024-02-21T04:12:00;7.25;;;4.72;;
62673;SDS011;62269;47.594;17.638;2024-02-21T04:12:58;8.27;;;4.78;;
62673;SDS011;62269;47.594;17.638;2024-02-21T04:13:56;7.85;;;4.40;;
62673;SDS011;62269;47.594;17.638;2024-02-21T04:14:54;6.00;;;4.55;;
62673;SDS011;62269;47.594;17.638;2024-02-21T04:15:51;9.57;;;5.15;;
62673;SDS011;62269;47.594;17.638;2024-02-21T04:16:48;7.50;;;4.65;;
62673;SDS011;62269;47.594;17.638;2024-02-21T04:17:46;7.62;;;5.05;;
62673;SDS011;62269;47.594;17.638;2024-02-21T04:18:44;9.43;;;4.57;;
62673;SDS011;62269;47.594;17.638;2024-02-21T04:19:41;9.55;;;5.47;;
62673;SDS011;62269;47.594;17.638;2024-02-21T04:20:39;8.52;;;4.68;;
62673;SDS011;62269;47.594;17.638;2024-02-21T04:21:37;7.25;;;4.47;;
62673;SDS011;62269;47.594;17.638;2024-02-21T04:22:34;7.45;;;4.40;;
62673;SDS011;62269;47.594;17.638;2024-02-21T04:23:32;11.75;;;5.30;;
62673;SDS011;62269;47.594;17.638;2024-02-21T04:24:29;9.13;;;5.05;;
62673;SDS011;62269;47.594;17.638;2024-02-21T04:25:27;11.20;;;4.65;;
62673;SDS011;62269;47.594;17.638;2024-02-21T04:26:24;6.80;;;4.90;;
62673;SDS011;62269;47.594;17.638;2024-02-21T04:27:22;8.40;;;4.75;;
62673;SDS011;62269;47.594;17.638;2024-02-21T04:28:19;7.85;;;4.32;;
62673;SDS011;62269;47.594;17.638;2024-02-21T04:29:17;7.22;;;4.43;;
62673;SDS011;62269;47.594;17.638;2024-02-21T04:30:15;11.10;;;5.18;;
62673;SDS011;62269;47.594;17.638;2024-02-21T04:31:13;8.95;;;4.72;;
62673;SDS011;62269;47.594;17.638;2024-02-21T04:32:11;9.02;;;4.40;;
62673;SDS011;62269;47.594;17.638;2024-02-21T04:33:09;10.73;;;4.93;;
62673;SDS011;62269;47.594;17.638;2024-02-21T04:34:06;13.00;;;5.18;;
62673;SDS011;62269;47.594;17.638;2024-02-21T04:35:04;7.35;;;5.12;;
62673;SDS011;62269;47.594;17.638;2024-02-21T04:36:04;8.63;;;4.90;;
62673;SDS011;62269;47.594;17.638;2024-02-21T04:37:01;11.82;;;5.00;;
62673;SDS011;62269;47.594;17.638;2024-02-21T04:37:59;8.52;;;5.10;;
62673;SDS011;62269;47.594;17.638;2024-02-21T04:38:57;9.60;;;4.53;;
62673;SDS011;62269;47.594;17.638;2024-02-21T04:39:55;7.78;;;4.90;;
62673;SDS011;62269;47.594;17.638;2024-02-21T04:40:53;7.47;;;4.70;;
62673;SDS011;62269;47.594;17.638;2024-02-21T04:41:51;7.72;;;4.57;;
62673;SDS011;62269;47.594;17.638;2024-02-21T04:42:49;9.93;;;4.93;;
62673;SDS011;62269;47.594;17.638;2024-02-21T04:43:46;6.25;;;4.65;;
62673;SDS011;62269;47.594;17.638;2024-02-21T04:44:45;10.32;;;5.10;;
62673;SDS011;62269;47.594;17.638;2024-02-21T04:45:42;6.87;;;4.60;;
62673;SDS011;62269;47.594;17.638;2024-02-21T04:46:41;9.77;;;5.07;;
62673;SDS011;62269;47.594;17.638;2024-02-21T04:47:40;8.65;;;4.85;;
62673;SDS011;62269;47.594;17.638;2024-02-21T04:48:37;8.85;;;4.60;;
62673;SDS011;62269;47.594;17.638;2024-02-21T04:49:35;7.40;;;4.50;;
62673;SDS011;62269;47.594;17.638;2024-02-21T04:50:32;8.18;;;4.87;;
62673;SDS011;62269;47.594;17.638;2024-02-21T04:51:30;9.05;;;4.75;;
62673;SDS011;62269;47.594;17.638;2024-02-21T04:52:30;8.75;;;4.62;;
62673;SDS011;62269;47.594;17.638;2024-02-21T04:53:27;9.10;;;5.12;;
62673;SDS011;62269;47.594;17.638;2024-02-21T04:54:25;6.87;;;4.95;;
62673;SDS011;62269;47.594;17.638;2024-02-21T04:55:22;9.73;;;4.47;;
62673;SDS011;62269;47.594;17.638;2024-02-21T04:56:20;9.80;;;4.50;;
62673;SDS011;62269;47.594;17.638;2024-02-21T04:57:18;9.27;;;4.72;;
62673;SDS011;62269;47.594;17.638;2024-02-21T04:58:16;9.45;;;4.70;;
62673;SDS011;62269;47.594;17.638;2024-02-21T04:59:13;6.80;;;4.47;;
62673;SDS011;62269;47.594;17.638;2024-02-21T05:00:11;8.00;;;5.55;;
62673;SDS011;62269;47.594;17.638;2024-02-21T05:01:09;8.48;;;4.37;;
62673;SDS011;62269;47.594;17.638;2024-02-21T05:02:07;8.40;;;4.68;;
62673;SDS011;62269;47.594;17.638;2024-02-21T05:03:07;8.25;;;4.30;;
62673;SDS011;62269;47.594;17.638;2024-02-21T05:04:05;11.05;;;4.78;;
62673;SDS011;62269;47.594;17.638;2024-02-21T05:05:03;7.25;;;4.57;;
62673;SDS011;62269;47.594;17.638;2024-02-21T05:06:01;11.02;;;5.62;;
62673;SDS011;62269;47.594;17.638;2024-02-21T05:06:59;7.47;;;4.90;;
62673;SDS011;62269;47.594;17.638;2024-02-21T05:07:58;6.93;;;4.50;;
62673;SDS011;62269;47.594;17.638;2024-02-21T05:08:56;8.10;;;4.43;;
62673;SDS011;62269;47.594;17.638;2024-02-21T05:09:54;9.95;;;4.90;;
62673;SDS011;62269;47.594;17.638;2024-02-21T05:10:52;8.52;;;4.87;;
62673;SDS011;62269;47.594;17.638;2024-02-21T05:11:50;7.12;;;4.28;;
62673;SDS011;62269;47.594;17.638;2024-02-21T05:12:48;6.25;;;4.60;;
62673;SDS011;62269;47.594;17.638;2024-02-21T05:13:46;5.90;;;4.37;;
62673;SDS011;62269;47.594;17.638;2024-02-21T05:14:44;7.72;;;4.90;;
62673;SDS011;62269;47.594;17.638;2024-02-21T05:15:42;6.60;;;4.22;;
62673;SDS011;62269;47.594;17.638;2024-02-21T05:16:40;8.27;;;4.60;;
62673;SDS011;62269;47.594;17.638;2024-02-21T05:17:37;7.50;;;4.30;;
62673;SDS011;62269;47.594;17.638;2024-02-21T05:18:35;9.68;;;4.32;;
62673;SDS011;62269;47.594;17.638;2024-02-21T05:19:33;8.80;;;4.80;;
62673;SDS011;62269;47.594;17.638;2024-02-21T05:20:31;8.32;;;4.65;;
62673;SDS011;62269;47.594;17.638;2024-02-21T05:21:28;8.85;;;4.78;;
62673;SDS011;62269;47.594;17.638;2024-02-21T05:22:26;8.52;;;5.07;;
62673;SDS011;62269;47.594;17.638;2024-02-21T05:23:24;8.32;;;5.05;;
62673;SDS011;62269;47.594;17.638;2024-02-21T05:24:22;9.00;;;4.30;;
62673;SDS011;62269;47.594;17.638;2024-02-21T05:25:19;11.05;;;5.10;;
62673;SDS011;62269;47.594;17.638;2024-02-21T05:26:22;9.95;;;5.03;;
62673;SDS011;62269;47.594;17.638;2024-02-21T05:27:21;8.25;;;4.80;;
62673;SDS011;62269;47.594;17.638;2024-02-21T05:28:18;9.32;;;5.12;;
62673;SDS011;62269;47.594;17.638;2024-02-21T05:29:16;9.52;;;4.80;;
62673;SDS011;62269;47.594;17.638;2024-02-21T05:30:14;8.65;;;4.65;;
62673;SDS011;62269;47.594;17.638;2024-02-21T05:31:11;9.63;;;5.03;;
62673;SDS011;62269;47.594;17.638;2024-02-21T05:32:11;10.55;;;4.80;;
62673;SDS011;62269;47.594;17.638;2024-02-21T05:33:08;11.77;;;5.35;;
62673;SDS011;62269;47.594;17.638;2024-02-21T05:34:06;8.18;;;4.60;;
62673;SDS011;62269;47.594;17.638;2024-02-21T05:35:04;8.68;;;5.10;;
62673;SDS011;62269;47.594;17.638;2024-02-21T05:36:02;9.57;;;4.60;;
62673;SDS011;62269;47.594;17.638;2024-02-21T05:37:00;7.25;;;4.90;;
62673;SDS011;62269;47.594;17.638;2024-02-21T05:37:58;7.25;;;4.72;;
62673;SDS011;62269;47.594;17.638;2024-02-21T05:38:56;10.50;;;4.82;;
62673;SDS011;62269;47.594;17.638;2024-02-21T05:39:54;9.20;;;5.18;;
62673;SDS011;62269;47.594;17.638;2024-02-21T05:40:51;8.55;;;5.22;;
62673;SDS011;62269;47.594;17.638;2024-02-21T05:41:49;7.43;;;4.70;;
62673;SDS011;62269;47.594;17.638;2024-02-21T05:42:47;9.77;;;5.03;;